Time;durP1;ratioP1;P1;durP2;ratioP2;P2;SDS_P1;SDS_P2;PMS_P1;PMS_P2;Temp;Humidity;BMP_temperature;BMP_pressure;BME280_temperature;BME280_humidity;BME280_pressure;Samples;Min_cycle;Max_cycle;Signal;HPM_P1;HPM_P2
2021/12/12 00:01:38;;;;;;;16.90;4.67;;;;;;;;;;5052363;28;20033;-88
2021/12/12 00:04:12;;;;;;;17.77;4.23;;;;;;;;;;5052299;28;20048;-88
2021/12/12 00:06:39;;;;;;;21.63;5.30;;;;;;;;;;5053534;28;20468;-88
2021/12/12 00:09:13;;;;;;;20.43;4.43;;;;;;;;;;5051346;28;20060;-88
2021/12/12 00:11:38;;;;;;;22.13;4.67;;;;;;;;;;5053267;28;20055;-88
2021/12/12 00:14:13;;;;;;;22.07;5.43;;;;;;;;;;5085183;28;20013;-87
2021/12/12 00:16:38;;;;;;;21.60;4.70;;;;;;;;;;5032137;28;20435;-88
2021/12/12 00:19:04;;;;;;;18.47;4.60;;;;;;;;;;5065303;28;20017;-88
2021/12/12 00:21:32;;;;;;;17.60;5.10;;;;;;;;;;5065495;28;20465;-89
2021/12/12 00:23:58;;;;;;;26.13;4.43;;;;;;;;;;5065323;28;20018;-89
2021/12/12 00:26:23;;;;;;;16.43;4.33;;;;;;;;;;5031896;28;20043;-89
2021/12/12 00:28:48;;;;;;;27.57;4.43;;;;;;;;;;5066458;28;20021;-88
2021/12/12 00:31:16;;;;;;;21.43;4.60;;;;;;;;;;5051229;28;20025;-88
2021/12/12 00:33:43;;;;;;;19.30;4.43;;;;;;;;;;5051679;28;20071;-89
2021/12/12 00:36:08;;;;;;;16.67;3.67;;;;;;;;;;5051792;28;20021;-89
2021/12/12 00:38:34;;;;;;;8.87;3.00;;;;;;;;;;5051677;28;20087;-89
2021/12/12 00:41:04;;;;;;;17.43;4.03;;;;;;;;;;5051917;28;20107;-89
2021/12/12 00:43:32;;;;;;;15.63;4.23;;;;;;;;;;5051641;28;20431;-89
2021/12/12 00:45:59;;;;;;;17.17;3.70;;;;;;;;;;5051541;28;20024;-88
2021/12/12 00:48:26;;;;;;;17.37;3.73;;;;;;;;;;5051776;28;20017;-89
2021/12/12 00:50:52;;;;;;;17.03;3.60;;;;;;;;;;5053116;28;20071;-89
2021/12/12 00:53:20;;;;;;;16.67;4.23;;;;;;;;;;5051620;28;20461;-88
2021/12/12 00:55:45;;;;;;;14.97;4.27;;;;;;;;;;5051564;28;20021;-89
2021/12/12 00:58:14;;;;;;;15.98;3.28;;;;;;;;;;5052797;28;20047;-89
2021/12/12 01:00:47;;;;;;;15.90;4.05;;;;;;;;;;5052894;28;20055;-88
2021/12/12 01:03:13;;;;;;;19.30;4.93;;;;;;;;;;5051711;28;20021;-88
2021/12/12 01:05:38;;;;;;;11.07;3.10;;;;;;;;;;5051396;28;20115;-88
2021/12/12 01:08:04;;;;;;;16.83;3.93;;;;;;;;;;5052797;28;20098;-89
2021/12/12 01:10:35;;;;;;;15.13;4.43;;;;;;;;;;5051686;28;20021;-89
2021/12/12 01:13:03;;;;;;;14.37;3.87;;;;;;;;;;5051935;28;20108;-89
2021/12/12 01:15:37;;;;;;;19.97;4.80;;;;;;;;;;5051583;28;20013;-89
2021/12/12 01:18:04;;;;;;;12.63;4.23;;;;;;;;;;5051238;28;20028;-89
2021/12/12 01:20:37;;;;;;;19.83;4.27;;;;;;;;;;5053678;28;20037;-89
2021/12/12 01:23:23;;;;;;;14.90;4.10;;;;;;;;;;5055198;28;20041;-89
2021/12/12 01:25:49;;;;;;;21.13;4.70;;;;;;;;;;5054676;28;20467;-89
2021/12/12 01:28:17;;;;;;;14.67;3.40;;;;;;;;;;5054999;28;20108;-89
2021/12/12 01:30:43;;;;;;;19.43;4.57;;;;;;;;;;5055644;28;20029;-89
2021/12/12 01:33:10;;;;;;;15.03;3.90;;;;;;;;;;5088382;28;20017;-89
2021/12/12 01:35:36;;;;;;;17.43;4.60;;;;;;;;;;5088882;28;20116;-89
2021/12/12 01:40:51;;;;;;;19.47;4.20;;;;;;;;;;5059175;28;20095;-89
2021/12/12 01:43:22;;;;;;;14.90;3.93;;;;;;;;;;5083835;28;20025;-89
2021/12/12 01:45:54;;;;;;;11.60;4.20;;;;;;;;;;5051020;28;20095;-89
2021/12/12 01:48:25;;;;;;;13.98;3.97;;;;;;;;;;5056284;28;20041;-89
2021/12/12 01:50:53;;;;;;;16.33;3.80;;;;;;;;;;5088509;28;20028;-89
2021/12/12 01:53:22;;;;;;;19.07;3.90;;;;;;;;;;5056190;28;20021;-89
2021/12/12 01:55:47;;;;;;;17.50;4.00;;;;;;;;;;5088461;28;20017;-89
2021/12/12 01:58:14;;;;;;;15.77;4.10;;;;;;;;;;5054578;28;20017;-89
2021/12/12 02:00:44;;;;;;;17.50;4.40;;;;;;;;;;5087951;28;20031;-88
2021/12/12 02:03:12;;;;;;;19.87;4.73;;;;;;;;;;5088423;28;20088;-89
2021/12/12 02:05:38;;;;;;;17.33;4.57;;;;;;;;;;5087991;28;20028;-89
2021/12/12 02:08:07;;;;;;;14.53;4.10;;;;;;;;;;5070379;28;20381;-89
2021/12/12 02:10:35;;;;;;;13.90;4.07;;;;;;;;;;5034401;28;20022;-89
2021/12/12 02:13:06;;;;;;;25.57;4.77;;;;;;;;;;5035989;28;20053;-89
2021/12/12 02:15:34;;;;;;;13.70;3.60;;;;;;;;;;5052568;28;20068;-89
2021/12/12 02:17:59;;;;;;;12.73;4.47;;;;;;;;;;5055382;28;20021;-89
2021/12/12 02:20:37;;;;;;;23.73;4.10;;;;;;;;;;5055798;28;20074;-89
2021/12/12 02:36:37;;;;;;;8.57;3.30;;;;;;;;;;5055319;28;20032;-89
2021/12/12 02:39:08;;;;;;;17.93;4.00;;;;;;;;;;5087821;28;20465;-89
2021/12/12 02:41:33;;;;;;;14.53;3.90;;;;;;;;;;5087718;28;20110;-89
2021/12/12 02:44:01;;;;;;;15.10;3.73;;;;;;;;;;5087244;28;20021;-89
2021/12/12 02:46:28;;;;;;;14.47;3.27;;;;;;;;;;5087415;28;20051;-89
2021/12/12 02:49:03;;;;;;;13.43;3.40;;;;;;;;;;5053849;28;20108;-89
2021/12/12 02:51:28;;;;;;;14.87;3.63;;;;;;;;;;5066937;28;20029;-88
2021/12/12 02:53:55;;;;;;;12.63;3.17;;;;;;;;;;5033936;28;20048;-90
2021/12/12 02:56:22;;;;;;;20.33;3.73;;;;;;;;;;5033857;28;20022;-89
2021/12/12 02:58:48;;;;;;;13.47;3.70;;;;;;;;;;5033794;28;20025;-89
2021/12/12 03:01:13;;;;;;;13.87;3.37;;;;;;;;;;5033564;28;20037;-89
2021/12/12 03:03:40;;;;;;;15.37;3.30;;;;;;;;;;5069026;28;20030;-89
2021/12/12 03:06:06;;;;;;;10.63;3.30;;;;;;;;;;5055020;28;20029;-89
2021/12/12 03:08:32;;;;;;;15.13;4.40;;;;;;;;;;5053285;28;20370;-89
2021/12/12 03:10:57;;;;;;;11.97;3.33;;;;;;;;;;5054469;28;20029;-89
2021/12/12 03:13:24;;;;;;;10.00;3.70;;;;;;;;;;5054741;28;20016;-89
2021/12/12 03:15:50;;;;;;;10.70;3.20;;;;;;;;;;5069957;28;20021;-89
2021/12/12 03:18:18;;;;;;;9.63;2.20;;;;;;;;;;5033261;28;20017;-89
2021/12/12 03:20:48;;;;;;;11.60;3.17;;;;;;;;;;5032942;28;20024;-89
2021/12/12 03:23:19;;;;;;;12.70;3.00;;;;;;;;;;5033292;28;20022;-89
2021/12/12 03:25:45;;;;;;;15.77;3.40;;;;;;;;;;5066444;28;20358;-89
2021/12/12 03:28:14;;;;;;;13.57;2.80;;;;;;;;;;5040434;28;20029;-89
2021/12/12 03:30:39;;;;;;;13.87;3.03;;;;;;;;;;5070953;28;20029;-89
2021/12/12 03:33:05;;;;;;;23.63;3.20;;;;;;;;;;5033174;28;20052;-88
2021/12/12 03:35:30;;;;;;;16.97;4.23;;;;;;;;;;5032785;28;20064;-89
2021/12/12 03:37:56;;;;;;;13.53;3.53;;;;;;;;;;5044593;28;20551;-89
2021/12/12 03:40:24;;;;;;;10.37;3.20;;;;;;;;;;5054267;28;20380;-89
2021/12/12 03:42:52;;;;;;;15.77;3.47;;;;;;;;;;5053397;28;20372;-88
2021/12/12 03:45:18;;;;;;;13.00;2.80;;;;;;;;;;5052454;28;20009;-88
2021/12/12 03:47:45;;;;;;;12.00;3.43;;;;;;;;;;5085386;28;20017;-89
2021/12/12 03:50:14;;;;;;;14.37;3.73;;;;;;;;;;5086637;28;20021;-89
2021/12/12 03:52:39;;;;;;;10.77;3.70;;;;;;;;;;5086349;28;20032;-89
2021/12/12 03:55:06;;;;;;;14.23;3.07;;;;;;;;;;5052332;28;20017;-89
2021/12/12 03:57:31;;;;;;;9.33;3.30;;;;;;;;;;5086119;28;20032;-89
2021/12/12 03:59:57;;;;;;;10.07;3.40;;;;;;;;;;5076822;28;20017;-89
2021/12/12 04:02:22;;;;;;;11.13;3.50;;;;;;;;;;5032743;28;20026;-89
2021/12/12 04:04:47;;;;;;;8.03;3.20;;;;;;;;;;5033414;28;20087;-89
2021/12/12 04:07:16;;;;;;;8.47;2.93;;;;;;;;;;5032695;28;20021;-89
2021/12/12 04:09:41;;;;;;;11.20;3.43;;;;;;;;;;5051319;28;20021;-89
2021/12/12 04:12:07;;;;;;;7.60;3.20;;;;;;;;;;5085999;28;20027;-89
2021/12/12 04:14:33;;;;;;;10.87;4.00;;;;;;;;;;5080640;28;20036;-90
2021/12/12 04:17:00;;;;;;;9.40;3.00;;;;;;;;;;5032621;28;20017;-90
2021/12/12 04:19:25;;;;;;;7.80;3.20;;;;;;;;;;5032358;28;20465;-89
2021/12/12 04:21:51;;;;;;;17.30;3.40;;;;;;;;;;5032469;28;20074;-89
2021/12/12 04:24:20;;;;;;;17.37;3.63;;;;;;;;;;5032468;28;20021;-90
2021/12/12 04:26:46;;;;;;;9.53;3.00;;;;;;;;;;5033431;28;20065;-90
2021/12/12 04:29:11;;;;;;;11.07;3.17;;;;;;;;;;5032462;28;20049;-89
2021/12/12 04:31:37;;;;;;;10.60;3.27;;;;;;;;;;5033333;28;20033;-89
2021/12/12 04:34:03;;;;;;;9.40;3.47;;;;;;;;;;5032332;28;20481;-89
2021/12/12 04:36:39;;;;;;;10.97;3.30;;;;;;;;;;5032392;28;20024;-90
2021/12/12 04:39:16;;;;;;;7.43;2.90;;;;;;;;;;5032171;28;20021;-89
2021/12/12 04:41:43;;;;;;;7.77;2.93;;;;;;;;;;5032063;28;20159;-89
2021/12/12 04:44:08;;;;;;;10.87;3.37;;;;;;;;;;5039845;28;20017;-89
2021/12/12 04:49:54;;;;;;;9.47;3.00;;;;;;;;;;5051987;28;20147;-89
2021/12/12 04:52:08;;;;;;;9.30;3.27;;;;;;;;;;5053224;28;20024;-90
2021/12/12 04:54:33;;;;;;;5.53;3.10;;;;;;;;;;5087558;28;20104;-90
2021/12/12 04:56:58;;;;;;;7.03;3.03;;;;;;;;;;5055928;28;20079;-89
2021/12/12 04:59:26;;;;;;;8.47;3.33;;;;;;;;;;5055940;28;20043;-89
2021/12/12 05:02:10;;;;;;;9.27;3.47;;;;;;;;;;5057130;28;20087;-89
2021/12/12 05:04:52;;;;;;;9.23;3.50;;;;;;;;;;5055733;28;20029;-88
2021/12/12 05:07:20;;;;;;;9.10;3.20;;;;;;;;;;5056121;28;20024;-89
2021/12/12 05:09:58;;;;;;;11.43;3.67;;;;;;;;;;5055610;28;20028;-89
2021/12/12 05:12:42;;;;;;;9.47;3.50;;;;;;;;;;5089467;28;20028;-90
2021/12/12 05:15:14;;;;;;;8.83;3.20;;;;;;;;;;5055758;28;20032;-90
2021/12/12 05:17:41;;;;;;;8.10;3.33;;;;;;;;;;5089403;28;20086;-89
2021/12/12 05:20:09;;;;;;;8.07;3.17;;;;;;;;;;5089139;28;20013;-89
2021/12/12 05:22:40;;;;;;;6.37;3.20;;;;;;;;;;5089293;28;20032;-88
2021/12/12 05:25:09;;;;;;;14.80;3.55;;;;;;;;;;5088863;28;20036;-89
2021/12/12 05:27:35;;;;;;;7.67;3.10;;;;;;;;;;5079494;28;20029;-89
2021/12/12 05:30:03;;;;;;;5.30;3.07;;;;;;;;;;5044818;28;20025;-89
2021/12/12 05:32:29;;;;;;;8.47;3.00;;;;;;;;;;5088766;27;20056;-89
2021/12/12 05:34:56;;;;;;;9.77;3.90;;;;;;;;;;5088763;28;20025;-90
2021/12/12 05:37:21;;;;;;;8.50;3.37;;;;;;;;;;5088910;28;20017;-89
2021/12/12 05:39:47;;;;;;;6.87;2.97;;;;;;;;;;5081666;28;20417;-89
2021/12/12 05:42:13;;;;;;;8.23;3.07;;;;;;;;;;5035170;28;20061;-89
2021/12/12 05:44:39;;;;;;;6.87;3.17;;;;;;;;;;5041588;28;20025;-89
2021/12/12 05:47:05;;;;;;;5.90;2.80;;;;;;;;;;5054914;28;20013;-89
2021/12/12 05:49:32;;;;;;;3.37;2.17;;;;;;;;;;5054813;28;20052;-89
2021/12/12 05:51:57;;;;;;;5.10;2.60;;;;;;;;;;5054435;28;20053;-90
2021/12/12 05:54:23;;;;;;;5.77;3.37;;;;;;;;;;5088506;28;20108;-90
2021/12/12 05:56:49;;;;;;;4.87;2.60;;;;;;;;;;5088445;28;20060;-90
2021/12/12 05:59:14;;;;;;;5.13;2.70;;;;;;;;;;5088492;28;20479;-90
2021/12/12 06:01:40;;;;;;;5.90;2.73;;;;;;;;;;5055987;28;20408;-89
2021/12/12 06:04:05;;;;;;;7.37;2.60;;;;;;;;;;5054649;28;20381;-90
2021/12/12 06:06:35;;;;;;;6.00;2.50;;;;;;;;;;5054094;28;20495;-89
2021/12/12 06:09:02;;;;;;;5.53;2.40;;;;;;;;;;5054753;28;20070;-89
2021/12/12 06:11:30;;;;;;;5.97;2.47;;;;;;;;;;5054149;28;20111;-89
2021/12/12 06:13:55;;;;;;;6.60;3.10;;;;;;;;;;5055757;28;20017;-89
2021/12/12 06:16:21;;;;;;;5.37;3.23;;;;;;;;;;5087659;28;20515;-89
2021/12/12 06:19:06;;;;;;;7.27;3.00;;;;;;;;;;5087589;28;20116;-89
2021/12/12 06:21:31;;;;;;;4.87;2.73;;;;;;;;;;5030728;28;20082;-89
2021/12/12 06:23:58;;;;;;;4.43;2.30;;;;;;;;;;5068019;28;20513;-89
2021/12/12 06:26:23;;;;;;;7.47;3.03;;;;;;;;;;5036905;28;20768;-89
2021/12/12 06:28:49;;;;;;;6.13;2.73;;;;;;;;;;5054474;28;20024;-89
2021/12/12 06:31:15;;;;;;;5.57;2.43;;;;;;;;;;5055327;28;20022;-89
2021/12/12 06:33:41;;;;;;;4.00;2.60;;;;;;;;;;5054182;28;20023;-89
2021/12/12 06:36:07;;;;;;;5.67;2.70;;;;;;;;;;5054174;28;20020;-89
2021/12/12 06:38:33;;;;;;;5.60;2.60;;;;;;;;;;5053942;28;20107;-89
2021/12/12 06:40:59;;;;;;;5.37;2.50;;;;;;;;;;5054039;28;20037;-89
2021/12/12 06:43:24;;;;;;;4.77;2.30;;;;;;;;;;5054162;28;20483;-88
2021/12/12 06:45:49;;;;;;;4.63;2.50;;;;;;;;;;5053777;28;20029;-89
2021/12/12 06:48:15;;;;;;;7.70;2.60;;;;;;;;;;5055259;28;20461;-89
2021/12/12 06:50:42;;;;;;;4.93;2.57;;;;;;;;;;5086927;28;20112;-89
2021/12/12 06:53:08;;;;;;;6.83;3.53;;;;;;;;;;5087133;28;20021;-89
2021/12/12 06:55:34;;;;;;;6.70;3.27;;;;;;;;;;5086988;28;20021;-89
2021/12/12 06:58:00;;;;;;;4.53;2.93;;;;;;;;;;5087204;28;20029;-89
2021/12/12 07:00:26;;;;;;;4.87;3.00;;;;;;;;;;5087094;28;20123;-89
2021/12/12 07:02:51;;;;;;;7.67;2.87;;;;;;;;;;5087084;28;20106;-89
2021/12/12 07:05:18;;;;;;;5.20;2.90;;;;;;;;;;5081952;28;20025;-89
2021/12/12 07:07:44;;;;;;;5.60;2.70;;;;;;;;;;5033563;28;20045;-89
2021/12/12 07:10:10;;;;;;;4.77;2.60;;;;;;;;;;5052132;28;20013;-88
2021/12/12 07:12:35;;;;;;;7.97;3.17;;;;;;;;;;5053366;28;20024;-88
2021/12/12 07:15:01;;;;;;;4.77;3.30;;;;;;;;;;5053047;28;20025;-89
2021/12/12 07:17:26;;;;;;;6.13;2.53;;;;;;;;;;5052143;28;20079;-88
2021/12/12 07:19:52;;;;;;;4.93;2.70;;;;;;;;;;5086617;28;20380;-89
2021/12/12 07:22:17;;;;;;;4.20;2.73;;;;;;;;;;5086556;28;20036;-89
2021/12/12 07:24:42;;;;;;;5.80;2.77;;;;;;;;;;5076828;28;20031;-88
2021/12/12 07:27:08;;;;;;;4.67;2.87;;;;;;;;;;5053993;28;20073;-88
2021/12/12 07:29:33;;;;;;;5.97;2.97;;;;;;;;;;5051806;28;20476;-88
2021/12/12 07:31:59;;;;;;;4.80;2.70;;;;;;;;;;5062182;28;20424;-88
2021/12/12 07:34:24;;;;;;;7.07;2.97;;;;;;;;;;5052437;28;20159;-89
2021/12/12 07:36:51;;;;;;;8.40;3.80;;;;;;;;;;5051260;28;20108;-89
2021/12/12 07:39:17;;;;;;;7.70;3.30;;;;;;;;;;5051880;28;20017;-87
2021/12/12 07:41:45;;;;;;;6.90;3.63;;;;;;;;;;5052147;28;20044;-87
2021/12/12 07:44:11;;;;;;;8.30;3.00;;;;;;;;;;5051499;28;20021;-87
2021/12/12 07:46:36;;;;;;;9.37;3.30;;;;;;;;;;5051297;28;20044;-87
2021/12/12 07:49:02;;;;;;;7.10;3.40;;;;;;;;;;5051255;28;20117;-87
2021/12/12 07:51:28;;;;;;;4.97;3.43;;;;;;;;;;5051369;28;20020;-86
2021/12/12 07:53:55;;;;;;;6.50;3.17;;;;;;;;;;5051962;28;20021;-85
2021/12/12 07:56:20;;;;;;;7.03;3.60;;;;;;;;;;5051926;28;20013;-86
2021/12/12 07:58:46;;;;;;;6.43;3.03;;;;;;;;;;5051869;28;20476;-86
2021/12/12 08:01:13;;;;;;;8.57;4.27;;;;;;;;;;5050314;28;20021;-85
2021/12/12 08:03:39;;;;;;;9.97;3.47;;;;;;;;;;5044197;28;20063;-85
2021/12/12 08:06:05;;;;;;;7.60;3.57;;;;;;;;;;5051462;28;20029;-86
2021/12/12 08:08:31;;;;;;;7.93;4.37;;;;;;;;;;5051768;28;20066;-86
2021/12/12 08:10:57;;;;;;;8.50;3.93;;;;;;;;;;5051154;28;20437;-86
2021/12/12 08:13:23;;;;;;;10.60;4.03;;;;;;;;;;5051321;28;20039;-85
2021/12/12 08:15:49;;;;;;;14.27;4.10;;;;;;;;;;5051316;28;20018;-85
2021/12/12 08:18:15;;;;;;;9.43;4.30;;;;;;;;;;5051245;28;20509;-86
2021/12/12 08:20:43;;;;;;;12.07;4.10;;;;;;;;;;5050893;28;20112;-86
2021/12/12 08:23:09;;;;;;;7.10;3.80;;;;;;;;;;5083779;28;20025;-86
2021/12/12 08:25:35;;;;;;;8.40;3.67;;;;;;;;;;5052683;28;20164;-86
2021/12/12 08:28:01;;;;;;;8.53;3.80;;;;;;;;;;5052086;28;20013;-86
2021/12/12 08:30:27;;;;;;;9.97;4.20;;;;;;;;;;5051251;28;20013;-87
2021/12/12 08:32:52;;;;;;;10.43;4.77;;;;;;;;;;5052486;28;20269;-86
2021/12/12 08:35:18;;;;;;;11.33;4.70;;;;;;;;;;5053738;28;20025;-86
2021/12/12 08:37:44;;;;;;;12.23;4.77;;;;;;;;;;5051159;28;20052;-86
2021/12/12 08:40:11;;;;;;;20.43;5.93;;;;;;;;;;5060915;28;20487;-86
2021/12/12 08:42:36;;;;;;;11.53;4.47;;;;;;;;;;5075459;28;20083;-86
2021/12/12 08:45:04;;;;;;;12.00;4.73;;;;;;;;;;5050754;28;20021;-86
2021/12/12 08:47:29;;;;;;;13.47;5.37;;;;;;;;;;5050490;28;20027;-87
2021/12/12 08:49:55;;;;;;;8.80;4.40;;;;;;;;;;5050787;28;20029;-87
2021/12/12 08:52:27;;;;;;;14.20;4.70;;;;;;;;;;5064797;28;20055;-87
2021/12/12 08:54:53;;;;;;;15.23;5.23;;;;;;;;;;5054332;28;20017;-86
2021/12/12 08:57:37;;;;;;;12.80;5.07;;;;;;;;;;5058879;28;20022;-87
2021/12/12 09:00:05;;;;;;;14.70;5.40;;;;;;;;;;5074852;28;20017;-87
2021/12/12 09:02:30;;;;;;;10.73;4.30;;;;;;;;;;5067172;28;20026;-87
2021/12/12 09:04:59;;;;;;;14.63;4.83;;;;;;;;;;5079641;28;20469;-86
2021/12/12 09:07:27;;;;;;;11.10;4.93;;;;;;;;;;5038816;28;20075;-87
2021/12/12 09:10:00;;;;;;;10.03;4.93;;;;;;;;;;5078983;28;20033;-86
2021/12/12 09:12:29;;;;;;;15.03;4.93;;;;;;;;;;5060693;28;20024;-87
2021/12/12 09:15:17;;;;;;;19.77;4.87;;;;;;;;;;5059950;28;20456;-87
2021/12/12 09:17:44;;;;;;;11.20;3.80;;;;;;;;;;5029248;28;20381;-88
2021/12/12 09:20:23;;;;;;;9.93;4.17;;;;;;;;;;5050918;28;20017;-87
2021/12/12 09:23:08;;;;;;;17.33;5.77;;;;;;;;;;5078889;28;20032;-87
2021/12/12 09:25:39;;;;;;;11.30;4.97;;;;;;;;;;5055310;28;20033;-87
2021/12/12 09:28:09;;;;;;;14.40;4.70;;;;;;;;;;5055612;28;20070;-87
2021/12/12 09:30:35;;;;;;;13.97;5.50;;;;;;;;;;5049094;28;20025;-87
2021/12/12 09:33:04;;;;;;;13.60;5.20;;;;;;;;;;5050307;28;20013;-87
2021/12/12 09:35:29;;;;;;;17.23;5.40;;;;;;;;;;5071971;28;20016;-87
2021/12/12 09:38:00;;;;;;;14.67;4.63;;;;;;;;;;5047708;28;20488;-86
2021/12/12 09:40:25;;;;;;;11.60;4.97;;;;;;;;;;5032451;28;20093;-86
2021/12/12 09:42:58;;;;;;;18.80;5.77;;;;;;;;;;5054225;28;20414;-87
2021/12/12 09:45:27;;;;;;;13.37;5.03;;;;;;;;;;5053926;28;20052;-87
2021/12/12 09:48:04;;;;;;;16.53;5.30;;;;;;;;;;5081254;28;20863;-87
2021/12/12 09:53:28;;;;;;;11.13;5.00;;;;;;;;;;5053692;28;20547;-87
2021/12/12 09:56:05;;;;;;;13.93;5.00;;;;;;;;;;5052069;28;20033;-86
2021/12/12 09:58:36;;;;;;;23.83;5.43;;;;;;;;;;5055232;28;20029;-86
2021/12/12 10:01:04;;;;;;;16.67;5.60;;;;;;;;;;5054009;28;20098;-86
2021/12/12 10:03:47;;;;;;;16.20;5.67;;;;;;;;;;5050311;28;20021;-86
2021/12/12 10:06:20;;;;;;;13.33;5.20;;;;;;;;;;5053637;28;20028;-87
2021/12/12 10:08:45;;;;;;;;;;;;;;;;;;5050420;28;20048;-87
2021/12/12 10:11:22;;;;;;;12.37;5.40;;;;;;;;;;5049405;28;19912;-87
2021/12/12 10:13:52;;;;;;;19.70;5.30;;;;;;;;;;5050176;28;20262;-86
2021/12/12 10:16:20;;;;;;;17.20;5.83;;;;;;;;;;5053321;28;20083;-87
2021/12/12 10:18:52;;;;;;;15.03;6.20;;;;;;;;;;5052741;28;20031;-87
2021/12/12 10:21:36;;;;;;;15.52;6.28;;;;;;;;;;5073621;28;20481;-86
2021/12/12 10:24:16;;;;;;;18.70;6.47;;;;;;;;;;5046812;28;20029;-86
2021/12/12 10:26:44;;;;;;;16.97;6.53;;;;;;;;;;5041391;28;20474;-87
2021/12/12 10:29:16;;;;;;;17.07;6.00;;;;;;;;;;5076053;28;20021;-87
2021/12/12 10:31:51;;;;;;;22.02;7.10;;;;;;;;;;5050240;28;20357;-86
2021/12/12 10:34:23;;;;;;;13.23;6.00;;;;;;;;;;5076628;28;20020;-87
2021/12/12 10:36:55;;;;;;;38.20;8.77;;;;;;;;;;5043320;28;20024;-87
2021/12/12 10:39:38;;;;;;;28.97;8.13;;;;;;;;;;5051414;28;20022;-87
2021/12/12 10:42:12;;;;;;;17.33;6.73;;;;;;;;;;5043711;28;20028;-87
2021/12/12 10:44:46;;;;;;;16.27;6.50;;;;;;;;;;5043576;28;20039;-87
2021/12/12 10:47:19;;;;;;;13.40;6.20;;;;;;;;;;5051303;28;20376;-86
2021/12/12 10:50:04;;;;;;;10.87;5.60;;;;;;;;;;5049242;28;20155;-86
2021/12/12 10:52:52;;;;;;;13.73;5.37;;;;;;;;;;5047955;28;20091;-87
2021/12/12 10:55:24;;;;;;;12.17;5.53;;;;;;;;;;5080561;28;20013;-87
2021/12/12 10:57:55;;;;;;;13.30;6.13;;;;;;;;;;5076356;28;20017;-87
2021/12/12 11:00:23;;;;;;;12.52;5.90;;;;;;;;;;5048954;28;20021;-87
2021/12/12 11:02:48;;;;;;;14.33;6.23;;;;;;;;;;5052445;28;20026;-87
2021/12/12 11:05:19;;;;;;;21.07;5.83;;;;;;;;;;5072594;28;20520;-87
2021/12/12 11:07:58;;;;;;;12.23;6.13;;;;;;;;;;5053886;28;20029;-86
2021/12/12 11:10:28;;;;;;;14.90;6.23;;;;;;;;;;5077796;28;20036;-87
2021/12/12 11:12:53;;;;;;;12.23;5.73;;;;;;;;;;5072258;28;20033;-86
2021/12/12 11:15:25;;;;;;;14.33;6.17;;;;;;;;;;5051605;28;20028;-87
2021/12/12 11:17:50;;;;;;;12.70;5.60;;;;;;;;;;5051411;28;20465;-87
2021/12/12 11:20:21;;;;;;;12.17;6.27;;;;;;;;;;5052660;28;20029;-87
2021/12/12 11:22:48;;;;;;;14.93;6.20;;;;;;;;;;5079817;28;20021;-87
2021/12/12 11:25:14;;;;;;;16.30;6.03;;;;;;;;;;5052446;28;20389;-86
2021/12/12 11:27:44;;;;;;;14.53;7.43;;;;;;;;;;5082946;28;20025;-86
2021/12/12 11:30:18;;;;;;;15.37;7.67;;;;;;;;;;5049086;28;20029;-87
2021/12/12 11:32:44;;;;;;;12.90;6.40;;;;;;;;;;5074050;28;20025;-87
2021/12/12 11:35:11;;;;;;;14.20;7.03;;;;;;;;;;5052375;28;20074;-87
2021/12/12 11:37:51;;;;;;;15.27;7.10;;;;;;;;;;5079160;28;20412;-86
2021/12/12 11:40:21;;;;;;;13.30;6.93;;;;;;;;;;5068875;28;20067;-86
2021/12/12 11:42:46;;;;;;;17.03;7.30;;;;;;;;;;5073014;28;20036;-87
2021/12/12 11:45:22;;;;;;;15.32;6.82;;;;;;;;;;5059253;28;20029;-86
2021/12/12 11:48:08;;;;;;;16.30;6.97;;;;;;;;;;5052198;28;20022;-86
2021/12/12 11:50:36;;;;;;;18.47;8.17;;;;;;;;;;5056983;28;20138;-88
2021/12/12 11:53:07;;;;;;;16.07;7.87;;;;;;;;;;5057894;28;20021;-87
2021/12/12 11:55:35;;;;;;;25.10;9.70;;;;;;;;;;5050531;28;20024;-87
2021/12/12 11:58:09;;;;;;;22.07;8.87;;;;;;;;;;5080843;28;20134;-87
2021/12/12 12:00:41;;;;;;;21.90;8.83;;;;;;;;;;5048041;28;20026;-87
2021/12/12 12:03:21;;;;;;;13.63;7.90;;;;;;;;;;5051914;28;20013;-87
2021/12/12 12:06:05;;;;;;;12.73;7.40;;;;;;;;;;5051518;28;20059;-88
2021/12/12 12:08:49;;;;;;;15.73;7.43;;;;;;;;;;5046342;28;20407;-87
2021/12/12 12:11:20;;;;;;;12.47;6.30;;;;;;;;;;5075134;28;20029;-87
2021/12/12 12:13:45;;;;;;;14.13;7.00;;;;;;;;;;5051286;28;20028;-87
2021/12/12 12:16:17;;;;;;;12.83;6.87;;;;;;;;;;5050265;28;20013;-87
2021/12/12 12:18:42;;;;;;;15.85;8.00;;;;;;;;;;5054077;28;20020;-87
2021/12/12 12:21:29;;;;;;;14.37;7.40;;;;;;;;;;5059969;28;20094;-87
2021/12/12 12:24:13;;;;;;;13.33;6.50;;;;;;;;;;5043948;28;20056;-88
2021/12/12 12:27:03;;;;;;;11.93;6.67;;;;;;;;;;5055095;28;20063;-88
2021/12/12 12:29:28;;;;;;;13.67;8.20;;;;;;;;;;5053357;28;20024;-89
2021/12/12 12:32:02;;;;;;;14.30;7.10;;;;;;;;;;5059956;28;20020;-89
2021/12/12 12:34:46;;;;;;;12.67;6.63;;;;;;;;;;5050786;28;20112;-88
2021/12/12 12:37:30;;;;;;;15.30;8.33;;;;;;;;;;5048336;28;20020;-88
2021/12/12 12:40:18;;;;;;;13.45;7.03;;;;;;;;;;5038777;28;20018;-88
2021/12/12 12:43:02;;;;;;;11.03;6.60;;;;;;;;;;5050165;28;20376;-87
2021/12/12 12:45:58;;;;;;;13.73;8.00;;;;;;;;;;5084486;28;20009;-87
2021/12/12 12:48:42;;;;;;;14.27;7.63;;;;;;;;;;5014906;28;20029;-89
2021/12/12 12:51:12;;;;;;;14.33;7.97;;;;;;;;;;5069205;28;20053;-88
2021/12/12 12:53:40;;;;;;;13.03;6.67;;;;;;;;;;5056211;28;20025;-88
2021/12/12 12:56:23;;;;;;;11.83;6.30;;;;;;;;;;5050867;28;20024;-87
2021/12/12 12:58:49;;;;;;;13.27;6.97;;;;;;;;;;5050852;28;20433;-87
2021/12/12 13:01:20;;;;;;;12.20;6.28;;;;;;;;;;5079374;28;20045;-88
2021/12/12 13:04:01;;;;;;;10.65;6.30;;;;;;;;;;5076086;28;20500;-88
2021/12/12 13:06:45;;;;;;;12.33;6.90;;;;;;;;;;5050233;28;20099;-88
2021/12/12 13:09:15;;;;;;;10.20;6.30;;;;;;;;;;5052114;28;20103;-88
2021/12/12 13:11:48;;;;;;;12.05;6.15;;;;;;;;;;5040966;28;20384;-88
2021/12/12 13:14:13;;;;;;;11.97;6.67;;;;;;;;;;5053676;28;20020;-88
2021/12/12 13:16:48;;;;;;;17.38;7.47;;;;;;;;;;5067567;28;20054;-88
2021/12/12 13:19:13;;;;;;;11.23;7.27;;;;;;;;;;5089732;28;20024;-89
2021/12/12 13:21:38;;;;;;;13.23;6.73;;;;;;;;;;5054438;28;20465;-88
2021/12/12 13:24:09;;;;;;;9.70;6.10;;;;;;;;;;5053896;28;20021;-87
2021/12/12 13:26:43;;;;;;;13.50;6.55;;;;;;;;;;5074435;28;20025;-88
2021/12/12 13:29:20;;;;;;;10.75;6.47;;;;;;;;;;5086470;28;20032;-88
2021/12/12 13:32:05;;;;;;;10.03;4.90;;;;;;;;;;5043736;28;20025;-88
2021/12/12 13:34:35;;;;;;;11.00;6.37;;;;;;;;;;5025814;28;20045;-90
2021/12/12 13:37:00;;;;;;;8.27;5.50;;;;;;;;;;5053390;28;20100;-87
2021/12/12 13:39:44;;;;;;;10.60;6.03;;;;;;;;;;5053638;28;20044;-88
2021/12/12 13:42:22;;;;;;;10.13;6.22;;;;;;;;;;5077734;28;20366;-87
2021/12/12 13:45:07;;;;;;;11.07;6.13;;;;;;;;;;5050846;28;20029;-87
2021/12/12 13:47:51;;;;;;;11.38;6.68;;;;;;;;;;5085156;28;20033;-87
2021/12/12 13:50:35;;;;;;;15.63;8.03;;;;;;;;;;5060928;28;20025;-86
2021/12/12 13:53:15;;;;;;;14.33;7.63;;;;;;;;;;5045507;28;20025;-87
2021/12/12 13:55:46;;;;;;;17.25;8.07;;;;;;;;;;5055413;28;20100;-88
2021/12/12 13:58:11;;;;;;;20.50;9.88;;;;;;;;;;5055793;28;20033;-87
2021/12/12 14:00:41;;;;;;;17.35;7.57;;;;;;;;;;5058719;28;20433;-86
2021/12/12 14:03:21;;;;;;;18.58;9.15;;;;;;;;;;5063188;28;20021;-87
2021/12/12 14:05:47;;;;;;;22.60;9.25;;;;;;;;;;5084325;28;20079;-87
2021/12/12 14:08:14;;;;;;;17.13;8.40;;;;;;;;;;5084379;28;20024;-86
2021/12/12 14:10:43;;;;;;;12.00;6.60;;;;;;;;;;5053929;28;20017;-87
2021/12/12 14:13:13;;;;;;;9.20;6.15;;;;;;;;;;5049480;28;20051;-87
2021/12/12 14:16:01;;;;;;;9.60;5.90;;;;;;;;;;5052980;28;20025;-87
2021/12/12 14:18:29;;;;;;;9.80;6.53;;;;;;;;;;5064806;28;20021;-87
2021/12/12 14:20:55;;;;;;;13.70;7.20;;;;;;;;;;5086492;28;20013;-85
2021/12/12 14:23:23;;;;;;;9.90;6.07;;;;;;;;;;5039681;28;20104;-86
2021/12/12 14:25:50;;;;;;;10.55;6.68;;;;;;;;;;5046113;28;20477;-86
2021/12/12 14:28:17;;;;;;;15.50;7.73;;;;;;;;;;5073265;28;20056;-87
2021/12/12 14:30:44;;;;;;;13.75;7.20;;;;;;;;;;5076967;28;20458;-86
2021/12/12 14:33:11;;;;;;;10.27;6.43;;;;;;;;;;5053115;28;20025;-87
2021/12/12 14:35:44;;;;;;;12.05;6.82;;;;;;;;;;5052904;28;20033;-87
2021/12/12 14:38:12;;;;;;;11.25;6.55;;;;;;;;;;5053505;28;20025;-87
2021/12/12 14:40:42;;;;;;;13.47;7.60;;;;;;;;;;5102737;28;20051;-87
2021/12/12 14:43:11;;;;;;;14.55;7.15;;;;;;;;;;5065957;28;20020;-87
2021/12/12 14:45:41;;;;;;;15.90;7.63;;;;;;;;;;5086771;28;20036;-87
2021/12/12 14:48:08;;;;;;;11.00;6.70;;;;;;;;;;5086712;28;20488;-86
2021/12/12 14:50:37;;;;;;;12.40;6.90;;;;;;;;;;5089165;28;20033;-86
2021/12/12 14:53:04;;;;;;;14.07;7.53;;;;;;;;;;5066007;28;20552;-87
2021/12/12 14:55:48;;;;;;;10.68;6.38;;;;;;;;;;5086750;28;20554;-86
2021/12/12 14:58:22;;;;;;;11.43;6.60;;;;;;;;;;5086610;28;20108;-86
2021/12/12 15:01:07;;;;;;;14.65;7.10;;;;;;;;;;5076202;28;20028;-86
2021/12/12 15:03:36;;;;;;;12.68;7.57;;;;;;;;;;5052206;28;20041;-86
2021/12/12 15:06:07;;;;;;;11.68;7.13;;;;;;;;;;5056783;28;20541;-87
2021/12/12 15:08:43;;;;;;;11.70;6.60;;;;;;;;;;5053577;28;20158;-86
2021/12/12 15:11:28;;;;;;;11.60;7.00;;;;;;;;;;5073920;28;20538;-87